Prescott, Arizona
Current Conditions -  °F | °C
As of 4:53 PM on Monday 22 Dec 2014 (Local Time) from KPRC Reporting Station
Clear Clear  
Wind Chill: 58°   Ceiling: Unl
Heat Index: 58°   Visibility: 10mi
Dew Point: 30°   Wind: 20mph
Humidity: 35%   Direction: 320°NW
Pressure: 29.97"   Gusts: NA
Location:  34.54°N, 112.47°W
Report Text: KPRC 222353Z 32017KT 10SM CLR 14/M01 A2997 RMK AO2 PK WND 33026/2255 SLP106 T01441011 10172 20133 56000
Loading
Personal Weather Stations






























Interactive Weather Map New forecast layout! Learn more

10-Day Weather Forecast

Advertisements
Track Severe Weather on mobile